createdAt,value
2019-02-04T00:00:20.790Z,1.27
2019-02-04T00:01:30.008Z,1.30
2019-02-04T00:02:20.768Z,1.39
2019-02-04T00:03:20.733Z,1.42
2019-02-04T00:04:20.728Z,1.41
2019-02-04T00:05:20.731Z,1.45
2019-02-04T00:06:20.706Z,1.44
2019-02-04T00:07:20.689Z,1.57
2019-02-04T00:08:20.678Z,1.60
2019-02-04T00:09:20.678Z,1.60
2019-02-04T00:10:20.693Z,1.59
2019-02-04T00:11:20.647Z,1.75
2019-02-04T00:12:20.636Z,1.66
2019-02-04T00:13:20.624Z,1.64
2019-02-04T00:14:20.615Z,1.64
2019-02-04T00:15:30.064Z,1.59
2019-02-04T00:16:20.594Z,1.57
2019-02-04T00:17:20.581Z,1.56
2019-02-04T00:18:20.573Z,1.52
2019-02-04T00:19:20.568Z,1.53
2019-02-04T00:20:20.585Z,1.56
2019-02-04T00:21:20.564Z,1.56
2019-02-04T00:23:11.977Z,1.57
2019-02-04T00:24:12.048Z,1.53
2019-02-04T00:25:11.968Z,1.49
2019-02-04T00:26:11.939Z,1.52
2019-02-04T00:27:11.925Z,1.53
2019-02-04T00:28:11.916Z,1.49
2019-02-04T00:29:11.902Z,1.49
2019-02-04T00:30:11.922Z,1.63
2019-02-04T00:31:11.885Z,1.49
2019-02-04T00:32:11.873Z,1.39
2019-02-04T00:33:11.883Z,1.46
2019-02-04T00:34:11.848Z,1.49
2019-02-04T00:35:11.869Z,1.57
2019-02-04T00:36:11.835Z,1.45
2019-02-04T00:37:11.815Z,1.55
2019-02-04T00:38:11.805Z,1.56
2019-02-04T00:39:11.804Z,1.53
2019-02-04T00:40:11.830Z,1.55
2019-02-04T00:41:11.786Z,1.59
2019-02-04T00:42:11.761Z,1.52
2019-02-04T00:43:11.750Z,1.59
2019-02-04T00:44:11.747Z,1.60
2019-02-04T00:45:11.727Z,1.57
2019-02-04T00:46:11.747Z,1.59
2019-02-04T00:47:11.710Z,1.59
2019-02-04T00:48:11.707Z,1.57
2019-02-04T00:49:11.682Z,1.53
2019-02-04T00:50:11.675Z,1.52
2019-02-04T00:51:11.683Z,1.48
2019-02-04T00:52:11.653Z,1.56
2019-02-04T00:53:11.748Z,1.49
2019-02-04T00:54:11.626Z,1.63
2019-02-04T00:55:11.619Z,1.62
2019-02-04T00:56:11.628Z,1.60
2019-02-04T00:57:11.593Z,1.63
2019-02-04T00:58:11.590Z,1.64
2019-02-04T00:59:11.577Z,1.69
2019-02-04T01:00:11.566Z,1.62
2019-02-04T01:01:11.572Z,1.63
2019-02-04T01:02:11.543Z,1.63
2019-02-04T01:03:11.527Z,1.52
2019-02-04T01:04:11.519Z,1.52
2019-02-04T01:05:11.506Z,1.52
2019-02-04T01:06:11.517Z,1.57
2019-02-04T01:07:11.487Z,1.60
2019-02-04T01:08:11.472Z,1.62
2019-02-04T01:09:11.467Z,1.62
2019-02-04T01:10:11.450Z,1.62
2019-02-04T01:11:11.473Z,1.55
2019-02-04T01:12:20.764Z,1.53
2019-02-04T01:13:11.434Z,1.57
2019-02-04T01:14:11.405Z,1.53
2019-02-04T01:15:11.397Z,1.55
2019-02-04T01:16:11.410Z,1.55
2019-02-04T01:17:11.380Z,1.57
2019-02-04T01:18:11.370Z,1.57
2019-02-04T01:19:19.746Z,1.49
2019-02-04T01:20:11.340Z,1.44
2019-02-04T01:21:11.350Z,1.45
2019-02-04T01:22:11.321Z,1.45
2019-02-04T01:23:11.310Z,1.42
2019-02-04T01:24:11.297Z,1.42
2019-02-04T01:25:11.285Z,1.48
2019-02-04T01:26:11.300Z,1.41
2019-02-04T01:27:11.263Z,1.38
2019-02-04T01:28:11.254Z,1.45
2019-02-04T01:29:11.242Z,1.44
2019-02-04T01:30:11.231Z,1.38
2019-02-04T01:31:11.243Z,1.45
2019-02-04T01:32:11.228Z,1.42
2019-02-04T01:33:11.200Z,1.44
2019-02-04T01:34:11.198Z,1.39
2019-02-04T01:35:11.197Z,1.39
2019-02-04T01:36:11.206Z,1.42
2019-02-04T01:37:11.154Z,1.56
2019-02-04T01:38:11.160Z,1.45
2019-02-04T01:39:11.133Z,1.45
2019-02-04T01:40:11.131Z,1.45
2019-02-04T01:41:11.136Z,1.49
2019-02-04T01:42:11.099Z,1.45
2019-02-04T01:43:11.096Z,1.55
2019-02-04T01:44:11.081Z,1.56
2019-02-04T01:45:11.065Z,1.56
2019-02-04T01:46:11.078Z,1.55
2019-02-04T01:47:14.595Z,1.56
2019-02-04T01:48:11.056Z,1.52
2019-02-04T01:49:11.021Z,1.52
2019-02-04T01:50:11.009Z,1.55
2019-02-04T01:51:11.026Z,1.57
2019-02-04T01:52:11.062Z,1.59
2019-02-04T01:53:10.980Z,1.55
2019-02-04T01:54:10.967Z,1.60
2019-02-04T01:55:10.981Z,1.62
2019-02-04T01:56:10.979Z,1.56
2019-02-04T01:57:10.939Z,1.59
2019-02-04T01:58:10.929Z,1.57
2019-02-04T01:59:10.910Z,1.59
2019-02-04T02:00:11.015Z,1.56
2019-02-04T02:01:10.917Z,1.49
2019-02-04T02:02:10.878Z,1.55
2019-02-04T02:03:10.910Z,1.44
2019-02-04T02:04:10.859Z,1.48
2019-02-04T02:05:10.845Z,1.45
2019-02-04T02:06:10.833Z,1.45
2019-02-04T02:07:10.844Z,1.49
2019-02-04T02:08:10.816Z,1.39
2019-02-04T02:09:10.801Z,1.36
2019-02-04T02:10:10.789Z,1.28
2019-02-04T02:11:10.792Z,1.38
2019-02-04T02:12:10.794Z,1.26
2019-02-04T02:13:10.759Z,1.23
2019-02-04T02:14:10.758Z,1.31
2019-02-04T02:15:10.738Z,1.24
2019-02-04T02:16:10.727Z,1.18
2019-02-04T02:17:10.735Z,1.17
2019-02-04T02:18:10.701Z,1.18
2019-02-04T02:19:10.696Z,1.16
2019-02-04T02:20:10.686Z,1.13
2019-02-04T02:21:10.725Z,1.12
2019-02-04T02:22:10.680Z,1.13
2019-02-04T02:23:10.648Z,1.09
2019-02-04T02:24:10.639Z,1.10
2019-02-04T02:25:10.659Z,1.09
2019-02-04T02:26:10.616Z,0.98
2019-02-04T02:27:10.628Z,1.06
2019-02-04T02:28:10.594Z,0.94
2019-02-04T02:29:10.581Z,1.00
2019-02-04T02:30:10.573Z,1.00
2019-02-04T02:31:10.558Z,0.94
2019-02-04T02:32:10.570Z,0.91
2019-02-04T02:33:10.537Z,0.87
2019-02-04T02:34:10.525Z,0.91
2019-02-04T02:35:10.519Z,0.99
2019-02-04T02:36:10.504Z,0.88
2019-02-04T02:37:10.522Z,0.88
2019-02-04T02:38:10.488Z,0.92
2019-02-04T02:39:10.476Z,0.82
2019-02-04T02:40:10.463Z,0.87
2019-02-04T02:41:10.449Z,0.81
2019-02-04T02:42:10.461Z,0.90
2019-02-04T02:43:11.661Z,0.85
2019-02-04T02:44:10.415Z,0.80
2019-02-04T02:45:10.406Z,0.82
2019-02-04T02:46:10.392Z,0.82
2019-02-04T02:47:10.404Z,0.78
2019-02-04T02:48:10.372Z,0.76
2019-02-04T02:49:10.359Z,0.82
2019-02-04T02:50:10.350Z,0.80
2019-02-04T02:51:10.339Z,0.76
2019-02-04T02:52:10.348Z,0.88
2019-02-04T02:53:10.317Z,0.91
2019-02-04T02:54:10.317Z,0.82
2019-02-04T02:55:10.302Z,0.81
2019-02-04T02:56:10.291Z,0.82
2019-02-04T02:57:10.292Z,0.88
2019-02-04T02:58:10.264Z,0.72
2019-02-04T02:59:10.249Z,0.74
2019-02-04T03:00:10.238Z,0.80
2019-02-04T03:01:10.230Z,0.72
2019-02-04T03:02:10.243Z,0.76
2019-02-04T03:03:10.208Z,0.67
2019-02-04T03:04:10.218Z,0.64
2019-02-04T03:05:10.182Z,0.69
2019-02-04T03:06:10.178Z,0.62
2019-02-04T03:07:10.198Z,0.62
2019-02-04T03:08:10.155Z,0.56
2019-02-04T03:09:10.141Z,0.66
2019-02-04T03:10:10.138Z,0.56
2019-02-04T03:11:10.120Z,0.67
2019-02-04T03:12:10.109Z,0.59
2019-02-04T03:13:10.127Z,0.48
2019-02-04T03:14:10.092Z,0.56
2019-02-04T03:15:10.083Z,0.48
2019-02-04T03:16:10.070Z,0.45
2019-02-04T03:17:10.170Z,0.43
2019-02-04T03:18:10.077Z,0.40
2019-02-04T03:19:10.043Z,0.41
2019-02-04T03:20:10.022Z,0.43
2019-02-04T03:21:10.044Z,0.36
2019-02-04T03:22:10.001Z,0.37
2019-02-04T03:23:19.249Z,0.37
2019-02-04T03:24:09.982Z,0.32
2019-02-04T03:25:09.969Z,0.30
2019-02-04T03:26:09.955Z,0.30
2019-02-04T03:27:09.949Z,0.36
2019-02-04T03:28:09.953Z,0.30
2019-02-04T03:29:09.923Z,0.27
2019-02-04T03:30:09.913Z,0.30
2019-02-04T03:31:09.929Z,0.29
2019-02-04T03:32:09.893Z,0.29
2019-02-04T03:33:09.936Z,0.30
2019-02-04T03:34:09.879Z,0.33
2019-02-04T03:35:09.872Z,0.26
2019-02-04T03:36:09.847Z,0.41
2019-02-04T03:37:09.857Z,0.29
2019-02-04T03:38:09.863Z,0.40
2019-02-04T03:39:09.825Z,0.32
2019-02-04T03:40:09.818Z,0.33
2019-02-04T03:41:19.038Z,0.33
2019-02-04T03:42:09.786Z,0.26
2019-02-04T03:43:09.793Z,0.25
2019-02-04T03:44:09.771Z,0.25
2019-02-04T03:45:09.748Z,0.23
2019-02-04T03:46:09.740Z,0.23
2019-02-04T03:47:09.740Z,0.22
2019-02-04T03:48:09.780Z,0.17
2019-02-04T03:49:09.708Z,0.26
2019-02-04T03:50:18.931Z,0.25
2019-02-04T03:51:09.685Z,0.20
2019-02-04T03:52:09.673Z,0.18
2019-02-04T03:53:09.683Z,0.15
2019-02-04T03:54:09.658Z,0.20
2019-02-04T03:55:09.657Z,0.23
2019-02-04T03:56:18.984Z,0.20
2019-02-04T03:57:09.621Z,0.22
2019-02-04T03:58:09.634Z,0.29
2019-02-04T03:59:09.600Z,0.27
2019-02-04T04:00:09.589Z,0.22
2019-02-04T04:01:09.579Z,0.20
2019-02-04T04:02:09.565Z,0.23
2019-02-04T04:03:09.593Z,0.15
2019-02-04T04:04:09.547Z,0.09
2019-02-04T04:05:09.530Z,0.14
2019-02-04T04:06:09.537Z,0.09
2019-02-04T04:07:09.509Z,0.09
2019-02-04T04:08:09.522Z,0.04
2019-02-04T04:09:09.596Z,0.02
2019-02-04T04:10:09.535Z,0.08
2019-02-04T04:11:09.466Z,0.11
2019-02-04T04:12:09.457Z,0.12
2019-02-04T04:13:09.483Z,0.00
2019-02-04T04:14:09.434Z,-0.06
2019-02-04T04:15:09.459Z,-0.04
2019-02-04T04:16:09.414Z,-0.06
2019-02-04T04:17:18.628Z,-0.07
2019-02-04T04:18:15.920Z,0.00
2019-02-04T04:19:09.383Z,-0.07
2019-02-04T04:20:19.000Z,0.00
2019-02-04T04:21:09.358Z,0.02
2019-02-04T04:22:09.347Z,0.00
2019-02-04T04:23:09.366Z,-0.03
2019-02-04T04:24:09.324Z,-0.06
2019-02-04T04:25:09.315Z,-0.01
2019-02-04T04:26:09.302Z,-0.01
2019-02-04T04:27:09.388Z,-0.01
2019-02-04T04:28:18.595Z,-0.07
2019-02-04T04:29:09.283Z,-0.06
2019-02-04T04:30:19.672Z,-0.06
2019-02-04T04:31:09.274Z,-0.04
2019-02-04T04:32:09.238Z,-0.06
2019-02-04T04:33:09.232Z,0.00
2019-02-04T04:34:09.297Z,-0.04
2019-02-04T04:35:09.205Z,-0.06
2019-02-04T04:36:09.193Z,-0.06
2019-02-04T04:37:09.186Z,-0.03
2019-02-04T04:38:09.173Z,-0.13
2019-02-04T04:39:09.185Z,-0.17
2019-02-04T04:40:18.409Z,-0.09
2019-02-04T04:41:09.138Z,-0.10
2019-02-04T04:42:18.528Z,-0.14
2019-02-04T04:43:09.118Z,-0.10
2019-02-04T04:44:09.130Z,-0.11
2019-02-04T04:45:09.094Z,-0.10
2019-02-04T04:46:09.093Z,-0.14
2019-02-04T04:47:09.075Z,-0.11
2019-02-04T04:48:09.065Z,-0.16
2019-02-04T04:49:09.077Z,-0.21
2019-02-04T04:50:09.042Z,-0.17
2019-02-04T04:51:09.030Z,-0.17
2019-02-04T04:52:09.020Z,-0.07
2019-02-04T04:53:09.010Z,-0.20
2019-02-04T04:54:09.022Z,-0.06
2019-02-04T04:55:09.010Z,-0.10
2019-02-04T04:56:08.977Z,-0.13
2019-02-04T04:57:08.967Z,-0.22
2019-02-04T04:58:08.960Z,-0.10
2019-02-04T04:59:08.969Z,-0.11
2019-02-04T05:00:08.975Z,-0.09
2019-02-04T05:01:08.927Z,-0.13
2019-02-04T05:02:08.918Z,-0.20
2019-02-04T05:03:08.905Z,-0.17
2019-02-04T05:04:08.937Z,-0.13
2019-02-04T05:05:08.895Z,-0.11
2019-02-04T05:06:08.871Z,-0.07
2019-02-04T05:07:08.861Z,-0.11
2019-02-04T05:08:08.848Z,-0.13
2019-02-04T05:09:18.234Z,-0.11
2019-02-04T05:10:18.197Z,-0.13
2019-02-04T05:11:08.813Z,-0.10
2019-02-04T05:12:08.803Z,-0.21
2019-02-04T05:13:08.792Z,-0.11
2019-02-04T05:14:08.806Z,-0.11
2019-02-04T05:15:08.771Z,-0.07
2019-02-04T05:16:08.774Z,-0.06
2019-02-04T05:17:08.747Z,-0.13
2019-02-04T05:18:08.798Z,-0.13
2019-02-04T05:19:08.748Z,-0.10
2019-02-04T05:20:08.724Z,-0.13
2019-02-04T05:21:08.712Z,-0.13
2019-02-04T05:22:08.698Z,-0.20
2019-02-04T05:23:08.681Z,-0.11
2019-02-04T05:24:08.694Z,-0.17
2019-02-04T05:25:08.660Z,-0.14
2019-02-04T05:26:08.654Z,-0.11
2019-02-04T05:27:08.641Z,-0.14
2019-02-04T05:28:09.202Z,-0.16
2019-02-04T05:29:08.646Z,-0.25
2019-02-04T05:30:08.609Z,-0.10
2019-02-04T05:31:08.605Z,-0.21
2019-02-04T05:32:08.582Z,-0.16
2019-02-04T05:33:08.578Z,-0.21
2019-02-04T05:34:08.586Z,-0.22
2019-02-04T05:35:08.551Z,-0.28
2019-02-04T05:36:08.541Z,-0.25
2019-02-04T05:37:08.536Z,-0.24
2019-02-04T05:38:08.517Z,-0.22
2019-02-04T05:39:08.539Z,-0.27
2019-02-04T05:40:08.499Z,-0.27
2019-02-04T05:41:17.866Z,-0.28
2019-02-04T05:42:17.849Z,-0.25
2019-02-04T05:43:08.470Z,-0.27
2019-02-04T05:44:08.464Z,-0.20
2019-02-04T05:45:08.490Z,-0.22
2019-02-04T05:46:08.447Z,-0.24
2019-02-04T05:47:08.429Z,-0.24
2019-02-04T05:48:08.416Z,-0.27
2019-02-04T05:49:08.410Z,-0.24
2019-02-04T05:50:08.407Z,-0.25
2019-02-04T05:51:08.389Z,-0.25
2019-02-04T05:52:08.380Z,-0.21
2019-02-04T05:53:08.362Z,-0.28
2019-02-04T05:54:08.344Z,-0.29
2019-02-04T05:55:08.392Z,-0.32
2019-02-04T05:56:08.332Z,-0.27
2019-02-04T05:57:08.314Z,-0.28
2019-02-04T05:58:08.301Z,-0.20
2019-02-04T05:59:08.313Z,-0.28
2019-02-04T06:00:08.316Z,-0.28
2019-02-04T06:01:08.276Z,-0.27
2019-02-04T06:02:09.460Z,-0.31
2019-02-04T06:03:08.252Z,-0.28
2019-02-04T06:04:08.242Z,-0.27
2019-02-04T06:05:08.263Z,-0.24
2019-02-04T06:06:08.226Z,-0.25
2019-02-04T06:07:08.204Z,-0.24
2019-02-04T06:08:08.202Z,-0.28
2019-02-04T06:09:08.179Z,-0.27
2019-02-04T06:10:08.193Z,-0.28
2019-02-04T06:11:08.176Z,-0.27
2019-02-04T06:12:08.147Z,-0.29
2019-02-04T06:13:08.142Z,-0.35
2019-02-04T06:14:08.125Z,-0.40
2019-02-04T06:15:08.167Z,-0.31
2019-02-04T06:16:08.117Z,-0.28
2019-02-04T06:17:08.095Z,-0.35
2019-02-04T06:18:08.084Z,-0.29
2019-02-04T06:19:08.072Z,-0.31
2019-02-04T06:20:08.081Z,-0.35
2019-02-04T06:21:08.048Z,-0.32
2019-02-04T06:22:08.042Z,-0.27
2019-02-04T06:23:08.030Z,-0.38
2019-02-04T06:24:08.021Z,-0.35
2019-02-04T06:25:08.047Z,-0.31
2019-02-04T06:26:08.003Z,-0.35
2019-02-04T06:27:10.228Z,-0.42
2019-02-04T06:28:07.979Z,-0.40
2019-02-04T06:29:07.994Z,-0.31
2019-02-04T06:30:07.972Z,-0.39
2019-02-04T06:31:07.941Z,-0.31
2019-02-04T06:32:07.933Z,-0.31
2019-02-04T06:33:07.921Z,-0.32
2019-02-04T06:34:07.908Z,-0.32
2019-02-04T06:35:07.927Z,-0.28
2019-02-04T06:36:07.889Z,-0.27
2019-02-04T06:37:07.878Z,-0.28
2019-02-04T06:38:07.865Z,-0.27
2019-02-04T06:39:07.853Z,-0.27
2019-02-04T06:40:07.918Z,-0.22
2019-02-04T06:41:16.087Z,-0.35
2019-02-04T06:42:07.823Z,-0.20
2019-02-04T06:43:07.809Z,-0.25
2019-02-04T06:44:17.046Z,-0.27
2019-02-04T06:45:07.790Z,-0.24
2019-02-04T06:46:07.798Z,-0.28
2019-02-04T06:47:07.769Z,-0.25
2019-02-04T06:48:07.754Z,-0.13
2019-02-04T06:49:12.430Z,-0.14
2019-02-04T06:50:07.734Z,-0.16
2019-02-04T06:51:07.761Z,-0.13
2019-02-04T06:52:07.745Z,-0.10
2019-02-04T06:53:07.704Z,-0.10
2019-02-04T06:54:07.690Z,-0.09
2019-02-04T06:55:07.683Z,-0.10
2019-02-04T06:56:07.692Z,-0.14
2019-02-04T06:57:07.656Z,-0.11
2019-02-04T06:58:07.650Z,-0.13
2019-02-04T06:59:07.636Z,-0.07
2019-02-04T07:00:07.652Z,-0.20
2019-02-04T07:01:07.636Z,-0.14
2019-02-04T07:02:07.608Z,-0.13
2019-02-04T07:03:07.679Z,-0.20
2019-02-04T07:04:07.584Z,-0.06
2019-02-04T07:05:07.570Z,-0.13
2019-02-04T07:06:07.597Z,-0.09
2019-02-04T07:07:07.547Z,-0.10
2019-02-04T07:08:07.538Z,-0.11
2019-02-04T07:09:07.560Z,-0.11
2019-02-04T07:10:07.514Z,-0.06
2019-02-04T07:11:07.540Z,-0.07
2019-02-04T07:12:07.499Z,-0.04
2019-02-04T07:13:07.484Z,0.00
2019-02-04T07:14:07.474Z,-0.03
2019-02-04T07:15:07.470Z,-0.10
2019-02-04T07:16:07.632Z,-0.03
2019-02-04T07:17:15.651Z,0.04
2019-02-04T07:18:07.429Z,0.08
2019-02-04T07:19:23.958Z,0.04
2019-02-04T07:20:07.412Z,0.11
2019-02-04T07:21:07.450Z,0.11
2019-02-04T07:22:07.385Z,0.18
2019-02-04T07:23:07.433Z,0.15
2019-02-04T07:24:07.363Z,0.09
2019-02-04T07:25:07.352Z,0.26
2019-02-04T07:26:07.626Z,0.23
2019-02-04T07:27:07.333Z,0.26
2019-02-04T07:28:07.350Z,0.32
2019-02-04T07:29:07.310Z,0.23
2019-02-04T07:30:07.298Z,0.27
2019-02-04T07:31:07.379Z,0.22
2019-02-04T07:32:07.350Z,0.33
2019-02-04T07:33:07.271Z,0.29
2019-02-04T07:34:07.254Z,0.33
2019-02-04T07:35:07.251Z,0.45
2019-02-04T07:36:07.254Z,0.48
2019-02-04T07:37:07.225Z,0.55
2019-02-04T07:38:07.230Z,0.51
2019-02-04T07:39:07.206Z,0.60
2019-02-04T07:40:07.191Z,0.64
2019-02-04T07:41:07.202Z,0.62
2019-02-04T07:42:07.168Z,0.80
2019-02-04T07:43:07.156Z,0.73
2019-02-04T07:44:07.146Z,0.74
2019-02-04T07:45:07.144Z,0.80
2019-02-04T07:46:07.156Z,0.87
2019-02-04T07:47:07.116Z,0.90
2019-02-04T07:48:07.105Z,1.00
2019-02-04T07:49:07.091Z,0.98
2019-02-04T07:50:07.083Z,1.00
2019-02-04T07:51:07.092Z,1.00
2019-02-04T07:52:07.059Z,1.03
2019-02-04T07:53:07.055Z,1.05
2019-02-04T07:54:07.036Z,1.06
2019-02-04T07:55:07.026Z,1.09
2019-02-04T07:56:07.036Z,1.16
2019-02-04T07:57:07.025Z,1.23
2019-02-04T07:58:06.994Z,1.12
2019-02-04T07:59:06.982Z,1.12
2019-02-04T08:00:06.971Z,1.21
2019-02-04T08:01:06.967Z,1.18
2019-02-04T08:02:06.970Z,1.30
2019-02-04T08:03:06.942Z,1.21
2019-02-04T08:04:06.928Z,1.23
2019-02-04T08:05:06.917Z,1.31
2019-02-04T08:06:06.906Z,1.23
2019-02-04T08:07:06.917Z,1.38
2019-02-04T08:08:06.882Z,1.31
2019-02-04T08:09:06.882Z,1.30
2019-02-04T08:10:06.861Z,1.36
2019-02-04T08:11:06.850Z,1.39
2019-02-04T08:12:06.861Z,1.45
2019-02-04T08:13:06.829Z,1.42
2019-02-04T08:14:06.817Z,1.42
2019-02-04T08:15:06.806Z,1.49
2019-02-04T08:16:06.795Z,1.53
2019-02-04T08:17:06.809Z,1.55
2019-02-04T08:18:06.773Z,1.62
2019-02-04T08:19:06.761Z,1.60
2019-02-04T08:20:06.757Z,1.57
2019-02-04T08:21:06.740Z,1.71
2019-02-04T08:22:06.757Z,1.67
2019-02-04T08:23:06.717Z,1.75
2019-02-04T08:24:06.711Z,1.78
2019-02-04T08:25:06.698Z,1.78
2019-02-04T08:26:06.684Z,1.82
2019-02-04T08:27:06.695Z,1.87
2019-02-04T08:28:06.666Z,1.92
2019-02-04T08:29:06.661Z,1.95
2019-02-04T08:30:06.647Z,2.07
2019-02-04T08:31:06.628Z,2.07
2019-02-04T08:32:06.639Z,2.19
2019-02-04T08:33:06.606Z,2.29
2019-02-04T08:34:06.599Z,2.32
2019-02-04T08:35:06.583Z,2.24
2019-02-04T08:36:06.574Z,2.29
2019-02-04T08:37:06.589Z,2.30
2019-02-04T08:38:06.550Z,2.29
2019-02-04T08:39:06.686Z,2.42
2019-02-04T08:40:06.531Z,2.50
2019-02-04T08:41:06.526Z,2.51
2019-02-04T08:42:06.535Z,2.55
2019-02-04T08:43:06.497Z,2.65
2019-02-04T08:44:06.492Z,2.68
2019-02-04T08:45:06.475Z,2.81
2019-02-04T08:46:06.464Z,2.89
2019-02-04T08:47:06.456Z,2.97
2019-02-04T08:48:06.468Z,3.02
2019-02-04T08:49:06.430Z,3.18
2019-02-04T08:50:06.420Z,3.23
2019-02-04T08:51:06.409Z,3.33
2019-02-04T08:52:06.395Z,3.49
2019-02-04T08:53:06.407Z,3.60
2019-02-04T08:54:06.379Z,3.63
2019-02-04T08:55:06.370Z,3.69
2019-02-04T08:56:06.353Z,3.81
2019-02-04T08:57:06.339Z,3.90
2019-02-04T08:58:06.351Z,4.05
2019-02-04T08:59:06.317Z,4.05
2019-02-04T09:00:06.305Z,4.21
2019-02-04T09:01:06.299Z,4.23
2019-02-04T09:02:06.283Z,4.27
2019-02-04T09:03:06.309Z,4.45
2019-02-04T09:04:06.274Z,4.48
2019-02-04T09:05:06.253Z,4.53
2019-02-04T09:06:06.238Z,4.45
2019-02-04T09:07:06.228Z,4.48
2019-02-04T09:08:06.241Z,4.56
2019-02-04T09:09:06.209Z,4.56
2019-02-04T09:10:06.197Z,4.63
2019-02-04T09:11:06.187Z,4.61
2019-02-04T09:12:06.183Z,4.78
2019-02-04T09:13:06.182Z,4.75
2019-02-04T09:14:06.152Z,4.72
2019-02-04T09:15:06.143Z,4.82
2019-02-04T09:16:06.128Z,4.74
2019-02-04T09:17:06.121Z,4.75
2019-02-04T09:18:06.142Z,5.00
2019-02-04T09:19:06.097Z,4.97
2019-02-04T09:20:10.024Z,5.04
2019-02-04T09:21:06.074Z,5.04
2019-02-04T09:22:06.060Z,5.00
2019-02-04T09:23:06.490Z,4.96
2019-02-04T09:24:06.043Z,5.03
2019-02-04T09:25:06.035Z,5.03
2019-02-04T09:26:06.023Z,5.01
2019-02-04T09:27:06.005Z,4.98
2019-02-04T09:28:05.997Z,5.00
2019-02-04T09:29:06.003Z,4.93
2019-02-04T09:30:05.972Z,4.91
2019-02-04T09:31:05.963Z,4.91
2019-02-04T09:32:05.951Z,4.88
2019-02-04T09:33:05.942Z,4.89
2019-02-04T09:34:05.950Z,4.98
2019-02-04T09:35:05.917Z,4.88
2019-02-04T09:36:05.908Z,4.97
2019-02-04T09:37:05.894Z,5.00
2019-02-04T09:38:05.888Z,4.89
2019-02-04T09:39:05.893Z,4.96
2019-02-04T09:40:05.866Z,4.88
2019-02-04T09:41:05.853Z,4.74
2019-02-04T09:42:05.842Z,4.71
2019-02-04T09:43:05.830Z,4.93
2019-02-04T09:44:05.842Z,4.83
2019-02-04T09:45:05.806Z,4.97
2019-02-04T09:46:05.802Z,4.96
2019-02-04T09:47:05.783Z,4.83
2019-02-04T09:48:05.775Z,4.79
2019-02-04T09:49:05.782Z,4.91
2019-02-04T09:50:05.750Z,4.75
2019-02-04T09:51:05.739Z,4.75
2019-02-04T09:52:05.728Z,4.78
2019-02-04T09:53:05.725Z,4.97
2019-02-04T09:54:05.775Z,4.86
2019-02-04T09:55:05.703Z,4.91
2019-02-04T09:56:05.687Z,4.97
2019-02-04T09:57:05.675Z,5.01
2019-02-04T09:58:05.660Z,5.06
2019-02-04T09:59:05.649Z,5.04
2019-02-04T10:00:05.659Z,5.15
2019-02-04T10:01:05.628Z,5.14
2019-02-04T10:02:05.617Z,5.15
2019-02-04T10:03:05.612Z,5.11
2019-02-04T10:04:05.599Z,5.25
2019-02-04T10:05:05.604Z,5.33
2019-02-04T10:06:05.573Z,5.36
2019-02-04T10:07:05.566Z,5.34
2019-02-04T10:08:05.593Z,5.34
2019-02-04T10:09:05.543Z,5.34
2019-02-04T10:10:05.549Z,5.48
2019-02-04T10:11:05.522Z,5.41
2019-02-04T10:12:05.507Z,5.37
2019-02-04T10:13:05.502Z,5.40
2019-02-04T10:14:05.486Z,5.37
2019-02-04T10:15:05.527Z,5.30
2019-02-04T10:16:05.489Z,5.32
2019-02-04T10:17:05.452Z,5.32
2019-02-04T10:18:05.477Z,5.41
2019-02-04T10:19:05.447Z,5.34
2019-02-04T10:20:05.438Z,5.39
2019-02-04T10:21:05.451Z,5.41
2019-02-04T10:22:05.397Z,5.40
2019-02-04T10:23:05.432Z,5.40
2019-02-04T10:24:05.378Z,5.36
2019-02-04T10:25:05.425Z,5.36
2019-02-04T10:26:05.377Z,5.33
2019-02-04T10:27:05.381Z,5.44
2019-02-04T10:28:05.382Z,5.41
2019-02-04T10:29:05.370Z,5.52
2019-02-04T10:30:05.359Z,5.48
2019-02-04T10:31:05.341Z,5.59
2019-02-04T10:32:05.318Z,5.55
2019-02-04T10:33:05.305Z,5.65
2019-02-04T10:34:05.264Z,5.66
2019-02-04T10:35:16.369Z,5.69
2019-02-04T10:36:05.277Z,5.79
2019-02-04T10:37:05.228Z,5.77
2019-02-04T10:38:05.404Z,5.85
2019-02-04T10:39:05.267Z,5.76
2019-02-04T10:40:05.241Z,5.93
2019-02-04T10:41:05.221Z,5.93
2019-02-04T10:42:05.178Z,5.93
2019-02-04T10:43:05.227Z,5.93
2019-02-04T10:44:05.239Z,6.00
2019-02-04T10:45:05.214Z,5.90
2019-02-04T10:46:05.311Z,6.03
2019-02-04T10:47:05.140Z,5.93
2019-02-04T10:48:05.149Z,6.05
2019-02-04T10:49:05.130Z,6.05
2019-02-04T10:50:05.106Z,5.98
2019-02-04T10:51:05.113Z,5.98
2019-02-04T10:52:05.082Z,5.94
2019-02-04T10:53:05.053Z,6.06
2019-02-04T10:54:05.063Z,5.97
2019-02-04T10:55:05.135Z,6.00
2019-02-04T10:56:05.044Z,5.94
2019-02-04T10:57:05.038Z,6.00
2019-02-04T10:58:05.001Z,6.08
2019-02-04T10:59:05.005Z,6.16
2019-02-04T11:00:05.033Z,6.31
2019-02-04T11:01:04.983Z,6.47
2019-02-04T11:02:04.949Z,6.71
2019-02-04T11:03:04.962Z,6.68
2019-02-04T11:04:04.931Z,6.81
2019-02-04T11:05:04.963Z,6.92
2019-02-04T11:06:04.965Z,7.07
2019-02-04T11:07:04.942Z,7.28
2019-02-04T11:08:04.888Z,7.47
2019-02-04T11:09:04.925Z,7.55
2019-02-04T11:10:04.909Z,7.73
2019-02-04T11:11:04.909Z,7.73
2019-02-04T11:12:04.839Z,7.88
2019-02-04T11:13:04.960Z,7.92
2019-02-04T11:14:04.872Z,8.13
2019-02-04T11:15:04.837Z,8.19
2019-02-04T11:16:04.863Z,8.31
2019-02-04T11:17:04.941Z,8.20
2019-02-04T11:18:04.806Z,8.44
2019-02-04T11:19:04.761Z,8.47
2019-02-04T11:20:04.753Z,8.53
2019-02-04T11:21:04.790Z,8.53
2019-02-04T11:22:04.756Z,8.47
2019-02-04T11:23:04.723Z,8.53
2019-02-04T11:24:04.750Z,8.47
2019-02-04T11:25:04.694Z,8.60
2019-02-04T11:26:04.754Z,8.63
2019-02-04T11:27:04.881Z,8.62
2019-02-04T11:28:04.660Z,8.68
2019-02-04T11:29:04.656Z,8.70
2019-02-04T11:30:04.679Z,8.72
2019-02-04T11:31:04.721Z,8.52
2019-02-04T11:32:04.617Z,8.44
2019-02-04T11:33:04.610Z,8.28
2019-02-04T11:34:04.629Z,8.31
2019-02-04T11:35:04.649Z,8.16
2019-02-04T11:36:04.612Z,8.16
2019-02-04T11:37:04.600Z,8.26
2019-02-04T11:38:04.582Z,7.95
2019-02-04T11:39:04.561Z,8.02
2019-02-04T11:40:04.545Z,7.99
2019-02-04T11:41:04.517Z,8.01
2019-02-04T11:42:04.528Z,8.21
2019-02-04T11:43:04.535Z,8.31
2019-02-04T11:44:04.490Z,8.41
2019-02-04T11:45:04.526Z,8.60
2019-02-04T11:46:04.516Z,8.75
2019-02-04T11:47:04.472Z,8.93
2019-02-04T11:48:04.441Z,9.01
2019-02-04T11:49:04.431Z,9.08
2019-02-04T11:50:04.419Z,9.24
2019-02-04T11:51:09.828Z,9.41
2019-02-04T11:52:04.417Z,9.54
2019-02-04T11:53:04.387Z,9.59
2019-02-04T11:54:04.373Z,9.83
2019-02-04T11:55:04.360Z,10.03
2019-02-04T11:56:04.351Z,10.10
2019-02-04T11:57:04.360Z,10.58
2019-02-04T11:58:07.582Z,11.01
2019-02-04T11:59:04.316Z,11.51
2019-02-04T12:00:04.305Z,12.43
2019-02-04T12:01:04.296Z,13.05
2019-02-04T12:02:04.307Z,13.60
2019-02-04T12:03:04.274Z,14.41
2019-02-04T12:04:04.262Z,15.08
2019-02-04T12:05:04.250Z,15.23
2019-02-04T12:06:04.239Z,15.35
2019-02-04T12:07:04.248Z,15.80
2019-02-04T12:08:04.222Z,16.52
2019-02-04T12:09:04.204Z,16.98
2019-02-04T12:10:04.192Z,17.10
2019-02-04T12:11:04.185Z,17.39
2019-02-04T12:12:04.198Z,17.32
2019-02-04T12:13:04.167Z,17.66
2019-02-04T12:14:04.150Z,17.49
2019-02-04T12:15:04.142Z,17.53
2019-02-04T12:16:04.136Z,17.43
2019-02-04T12:17:04.141Z,17.76
2019-02-04T12:18:04.105Z,18.23
2019-02-04T12:19:04.094Z,17.99
2019-02-04T12:20:04.089Z,17.87
2019-02-04T12:21:04.074Z,17.75
2019-02-04T12:22:04.083Z,17.54
2019-02-04T12:23:04.051Z,17.73
2019-02-04T12:24:04.040Z,17.63
2019-02-04T12:25:04.042Z,17.78
2019-02-04T12:26:04.017Z,17.78
2019-02-04T12:27:04.027Z,17.46
2019-02-04T12:28:03.997Z,17.17
2019-02-04T12:29:03.995Z,16.77
2019-02-04T12:30:03.993Z,16.51
2019-02-04T12:31:03.965Z,16.10
2019-02-04T12:32:03.966Z,15.51
2019-02-04T12:33:03.968Z,14.87
2019-02-04T12:34:03.937Z,14.38
2019-02-04T12:35:03.921Z,13.49
2019-02-04T12:36:03.906Z,13.21
2019-02-04T12:37:03.953Z,12.87
2019-02-04T12:38:03.923Z,12.73
2019-02-04T12:39:03.878Z,12.54
2019-02-04T12:40:03.863Z,12.43
2019-02-04T12:41:03.851Z,11.95
2019-02-04T12:42:03.847Z,11.76
2019-02-04T12:43:03.858Z,11.85
2019-02-04T12:44:03.825Z,11.71
2019-02-04T12:45:03.814Z,11.96
2019-02-04T12:46:03.830Z,12.14
2019-02-04T12:47:03.790Z,12.47
2019-02-04T12:48:03.797Z,12.58
2019-02-04T12:49:03.788Z,12.61
2019-02-04T12:50:03.757Z,12.90
2019-02-04T12:51:03.742Z,13.02
2019-02-04T12:52:03.732Z,13.36
2019-02-04T12:53:03.746Z,13.58
2019-02-04T12:54:03.709Z,13.47
2019-02-04T12:55:03.698Z,13.53
2019-02-04T12:56:03.689Z,12.96
2019-02-04T12:57:03.678Z,12.36
2019-02-04T12:58:03.689Z,12.17
2019-02-04T12:59:03.656Z,11.79
2019-02-04T13:00:03.642Z,11.38
2019-02-04T13:01:03.638Z,11.04
2019-02-04T13:02:03.619Z,10.80
2019-02-04T13:03:03.634Z,10.62
2019-02-04T13:04:03.597Z,10.43
2019-02-04T13:05:03.586Z,10.23
2019-02-04T13:06:03.582Z,10.26
2019-02-04T13:07:03.563Z,10.08
2019-02-04T13:08:03.576Z,10.09
2019-02-04T13:09:03.545Z,10.08
2019-02-04T13:10:03.532Z,9.91
2019-02-04T13:11:03.525Z,9.90